Edwards Creek Valley, Nevada Weather observations

Data are for observation ending at time listed.
 Day   Time    Ave.   Ave.  Ave.  Vector   Max.   Stn.    Total    Solar   Ave.  
  of    of     Air    Rel.  Wind   Wind    Wind   Baro.  Precip.   Rad.    Soil  
Year   Day     Temp.  Hum.  Speed  Dir.    Gust   Pres.                    Temp. 
2016   (PST)    F      %     mph   deg.    mph     mb.     in.     W/m2     F   
------------------------------------------------------------------------------
 206   16:30   94.6     4    4.4   106     10.1    846     0.00     496    112.0
 206   16:40   94.6     4    3.2   296      7.3    846     0.00     138    111.8
 206   16:50   95.6     4    3.2   209      8.9    846     0.00     407    111.5
 206   17:00   95.2     4    5.4   228     12.3    846     0.00     425    111.2
 206   17:10   95.0     4    3.4   222      7.6    846     0.00     389    110.9
 206   17:20   94.8     4    4.4   219     11.3    845     0.00     354    110.6
 206   17:30   94.7     4    6.0   236     12.0    845     0.00     318    110.1
 206   17:40   94.1     5    4.9   270      9.9    846     0.00     284    109.7
 206   17:50   93.1     5   10.6   312     16.1    846     0.00     250    109.2
 206   18:00   92.1     6   11.1   308     15.6    846     0.00     216    108.8
 206   18:10   91.4     6   10.5   308     15.4    846     0.00     184    108.3
 206   18:20   90.6     6   10.8   297     15.6    846     0.00     153    107.7
 206   18:30   89.8     6    8.7   292     14.0    846     0.00     120    107.1
 206   18:40   89.0     6    8.1   289     12.6    846     0.00      83    106.4
 206   18:50   87.3     6    7.8   276     12.1    846     0.00      20    105.8
 206   19:00   85.7     6    6.7   278     10.4    846     0.00      11    105.1
 206   19:10   84.5     6    4.5   303      7.5    846     0.00       7    104.5
 206   19:20   82.6     7    1.8    25      3.3    846     0.00       3    103.7
 206   19:30   81.0     7    2.7   125      5.3    846     0.00       1    103.0
 206   19:40   77.1     8    3.9   122      6.2    847     0.00       0    102.4
 206   19:50   78.4     8    2.9   173      6.4    847     0.00       0    101.7
 206   20:00   80.2     7    5.6   134      9.1    847     0.00       0    101.0
 206   20:10   78.1     8    4.5   158      6.9    847     0.00       0    100.3
 206   20:20   79.1     8    3.6   191      5.6    848     0.00       0     99.7
 206   20:30   77.6     8    5.8   187      8.3    848     0.00       0     99.1
 206   20:40   75.2     8    5.2   184      8.0    847     0.00       0     98.5
 206   20:50   74.0     9    6.3   182      8.6    848     0.00       0     97.9
 206   21:00   72.1     9    4.9   154      6.5    848     0.00       0     97.3
 206   21:10   70.7    10    4.6   149      6.4    848     0.00       0     96.8
 206   21:20   70.3    10    5.5   156      7.7    847     0.00       0     96.2
 206   21:30   71.0    10    6.7   151      8.6    846     0.00       0     95.7
 206   21:40   71.1    10    6.4   158      8.0    847     0.00       0     95.2
 206   21:50   69.8    10    3.0   233      8.3    848     0.00       0     94.6
 206   22:00   67.4    11    5.0   197      8.6    847     0.00       0     94.2
 206   22:10   67.1    11    2.6   164      5.8    848     0.00       0     93.7
 206   22:20   66.5    11    2.2   183      4.1    847     0.00       0     93.2
 206   22:30   65.1    11    5.0   171      6.6    846     0.00       0     92.7
 206   22:40   64.3    11    3.3   159      4.2    847     0.00       0     92.2
 206   22:50   64.4    10    3.5   178      5.6    847     0.00       0     91.7
 206   23:00   63.3    12    4.9   186      6.8    848     0.00       0     91.3
 206   23:10   62.7    12    5.3   197      7.5    849     0.00       0     90.8
 206   23:20   63.7    12    4.3   209      6.1    849     0.00       0     90.4
 206   23:30   62.4    12    4.4   227      5.6    849     0.00       0     89.9
 206   23:40   61.0    12    4.8   187      7.2    849     0.00       0     89.5
 206   23:50   61.4    12    2.7   230      3.9    849     0.00       0     89.1
 207    0:00   61.4    13    3.7   260      9.1    848     0.00       0     88.6
 207    0:10   61.2    13    2.6   276      5.6    849     0.00       0     88.2
 207    0:20   66.7    12    1.9   230      3.1    849     0.00       0     87.8
 207    0:30   68.5    12    4.4   226      6.4    847     0.00       0     87.4
 207    0:40   63.0    13    5.2   166      6.5    847     0.00       0     87.1
 207    0:50   59.4    13    3.9   154      6.8    847     0.00       0     86.7
 207    1:00   58.3    13    2.9   182      3.9    847     0.00       0     86.3
 207    1:10   58.0    13    3.0   204      4.5    848     0.00       0     85.9
 207    1:20   64.1    12    1.4   120      5.1    848     0.00       0     85.6
 207    1:30   62.7    12    2.2    32      4.9    847     0.00       0     85.3
 207    1:40   58.1    13    2.2    54      5.8    847     0.00       0     84.9
 207    1:50   55.0    14    3.4   125      5.3    848     0.00       0     84.5
 207    2:00   55.2    14    2.3   105      3.6    846     0.00       0     84.2
 207    2:10   54.9    14    1.9    32      3.1    847     0.00       0     83.8
 207    2:20   54.8    14    2.6    98      3.9    848     0.00       0     83.5
 207    2:30   52.4    15    3.8   169      5.3    847     0.00       0     83.1
 207    2:40   54.1    15    4.3   121      5.3    846     0.00       0     82.8
 207    2:50   53.0    15    4.2   128      5.0    847     0.00       0     82.4
 207    3:00   51.9    15    3.3   132      4.5    847     0.00       0     82.1
 207    3:10   53.5    16    4.1   113      5.8    846     0.00       0     81.8
 207    3:20   58.0    14    3.7   108      5.8    846     0.00       0     81.4
 207    3:30   53.8    16    4.6   185      6.0    846     0.00       0     81.1
 207    3:40   58.1    16    3.9   143      5.0    847     0.00       0     80.8
 207    3:50   59.9    15    3.3   154      4.7    847     0.00       0     80.5
 207    4:00   60.8    15    2.5   150      7.2    847     0.00       0     80.2
 207    4:10   55.4    16    1.9   287      4.4    847     0.00       0     79.9
 207    4:20   51.1    18    1.1   238      2.2    847     0.00       0     79.7
 207    4:30   50.5    18    1.7    58      2.6    847     0.00       0     79.4
 207    4:40   49.9    18    3.7   124      5.0    847     0.00       1     79.1
 207    4:50   48.4    18    3.8   147      4.5    847     0.00       5     78.8
 207    5:00   48.5    19    3.1   133      3.9    847     0.00      10     78.5
 207    5:10   54.1    17    2.0   129      3.3    847     0.00      33     78.2
 207    5:20   54.5    16    1.9   156      3.8    847     0.00      57     77.9
 207    5:30   57.1    16    0.8   146      2.1    847     0.00      87     77.7
 207    5:40   59.3    14    1.4   144      2.2    847     0.00     117     77.5
 207    5:50   59.4    14    0.3   300      2.3    847     0.00     159     77.3
 207    6:00   61.9    14    0.9    16      3.1    847     0.00     196     77.1
 207    6:10   62.4    14    2.3     5      3.4    847     0.00     217     76.9
 207    6:20   62.9    14    2.1    29      3.1    848     0.00     248     76.9
 207    6:30   64.3    13    2.0    23      3.1    848     0.00     298     76.9
 207    6:40   65.2    13    1.9   356      3.3    848     0.00     338     76.9
 207    6:50   66.1    12    1.4   336      3.1    848     0.00     365     77.1
 207    7:00   67.7    12    0.6   312      1.6    848     0.00     400     77.3
 207    7:10   69.2    13    1.4   313      2.8    848     0.00     431     77.6
 207    7:20   70.7    12    2.6     9      4.7    848     0.00     477     77.9
 207    7:30   71.6    13    4.0    33      6.1    848     0.00     514     78.3
 207    7:40   73.3    12    3.1    19      5.4    849     0.00     543     78.7
 207    7:50   74.8    12    3.1    42      5.6    849     0.00     578     79.2
 207    8:00   76.7    12    2.7    53      5.2    849     0.00     603     79.8
 207    8:10   78.4    11    2.2    81      5.2    848     0.00     636     80.5
 207    8:20   79.1    11    2.1    94      4.7    850     0.00     663     81.2
 207    8:30   80.6    10    2.6    65      6.6    849     0.00     692     82.1
 207    8:40   80.7    10    3.2    22      7.1    850     0.00     713     82.9
 207    8:50   81.6    10    2.9    19      6.3    850     0.00     748     83.9
 207    9:00   83.6    10    1.7   141      6.9    851     0.00     778     84.8
 207    9:10   85.0     9    3.0    96     11.8    851     0.00     802     85.8
 207    9:20   85.8     9    7.6   202     12.3    852     0.00     826     86.8
 207    9:30   86.4     8    7.8   219     12.6    851     0.00     846     87.7
 207    9:40   86.9     8    9.3   222     13.5    851     0.00     873     88.7
 207    9:50   87.3     8    9.0   214     14.5    850     0.00     894     89.6
 207   10:00   88.0     7    9.2   203     14.0    851     0.00     920     90.6
 207   10:10   88.4     7    8.1   220     15.3    850     0.00     936     91.4
 207   10:20   89.0     7    8.5   212     14.9    850     0.00     954     92.3
 207   10:30   89.1     7    7.5   222     12.3    850     0.00     971     93.2
 207   10:40   89.0     7    5.7   220     11.5    850     0.00     980     94.1
 207   10:50   89.9     6    8.0   217     17.2    850     0.00     994     94.9
 207   11:00   90.8     6    9.4   219     18.3    850     0.00    1002     95.9
 207   11:10   91.3     6   11.8   207     19.2    850     0.00    1011     96.9
 207   11:20   91.7     5   11.3   214     16.9    850     0.00    1016     97.9
 207   11:30   92.4     5   11.2   210     18.6    850     0.00    1021     98.8
 207   11:40   92.4     5    9.5   198     17.5    850     0.00    1026     99.7
 207   11:50   92.3     5    6.6   207     14.4    849     0.00    1029    100.5
 207   12:00   92.8     5    9.6   197     17.0    849     0.00    1032    101.4
 207   12:10   93.2     5    9.0   206     18.3    849     0.00    1034    102.1
 207   12:20   93.3     5    9.4   216     20.8    848     0.00    1031    102.8
 207   12:30   93.6     5    9.5   196     17.9    849     0.00    1027    103.4
 207   12:40   93.5     5    9.2   192     19.4    849     0.00    1020    104.2
 207   12:50   93.6     5    9.9   186     18.0    848     0.00    1016    105.0
 207   13:00   94.7     5    9.6   216     19.0    848     0.00    1006    105.8
 207   13:10   94.6     4   11.5   207     17.6    848     0.00    1003    106.6
 207   13:20   94.6     4    9.6   210     17.5    848     0.00     991    107.3
 207   13:30   94.7     5   10.6   222     18.1    848     0.00     976    107.9
 207   13:40   94.6     5    9.6   239     15.5    848     0.00     959    108.6
 207   13:50   95.4     5   10.7   218     18.4    848     0.00     945    109.1
 207   14:00   95.2     5   10.4   208     19.7    848     0.00     924    109.6
 207   14:10   95.5     5    9.6   213     18.4    848     0.00     903    110.0
 207   14:20   95.5     4   10.8   229     18.5    848     0.00     890    110.4
 207   14:30   96.0     4   10.1   212     18.3    847     0.00     867    110.8
 207   14:40   95.9     4   10.7   215     18.8    847     0.00     841    111.0
 207   14:50   95.8     4   10.8   223     18.7    847     0.00     814    111.3
 207   15:00   95.6     4    8.9   216     14.2    847     0.00     796    111.4
 207   15:10   95.6     4    8.9   223     14.2    847     0.00     759    111.5
 207   15:20   95.4     4    8.7   245     16.8    847     0.00     731    111.6
 207   15:30   95.8     4   10.1   198     21.0    847     0.00     703    111.6
 207   15:40   95.6     4   10.9   258     18.3    847     0.00     674    111.6
 207   15:50   95.4     4   12.8   261     21.3    847     0.00     647    111.5
 207   16:00   95.3     4   10.4   243     17.6    847     0.00     593    111.4
 207   16:10   95.4     4    7.9   228     12.6    847     0.00     443    111.3
 207   16:20   95.3     4    7.5   241     15.9    847     0.00     538    111.0

Return to Carson Sink graphs page.


Western Regional Climate Center,wrcc@dri.edu